createdAt,value
2023-04-14T00:00:39.266Z,91.59
2023-04-14T00:01:40.273Z,92.63
2023-04-14T00:02:39.481Z,93.74
2023-04-14T00:03:39.407Z,91.66
2023-04-14T00:04:40.389Z,92.25
2023-04-14T00:05:39.238Z,91.40
2023-04-14T00:06:40.237Z,92.03
2023-04-14T00:07:39.240Z,90.63
2023-04-14T00:08:40.281Z,90.70
2023-04-14T00:09:40.245Z,89.82
2023-04-14T00:10:40.214Z,91.15
2023-04-14T00:11:40.228Z,91.45
2023-04-14T00:12:40.238Z,90.88
2023-04-14T00:13:39.240Z,91.89
2023-04-14T00:14:40.274Z,92.93
2023-04-14T00:15:39.342Z,88.82
2023-04-14T00:16:40.310Z,92.30
2023-04-14T00:17:39.340Z,93.20
2023-04-14T00:18:39.323Z,91.32
2023-04-14T00:19:40.333Z,92.73
2023-04-14T00:20:40.393Z,91.89
2023-04-14T00:21:40.425Z,91.10
2023-04-14T00:22:40.414Z,91.05
2023-04-14T00:23:40.418Z,90.30
2023-04-14T00:24:40.485Z,90.67
2023-04-14T00:25:39.461Z,90.39
2023-04-14T00:26:40.484Z,90.79
2023-04-14T00:27:39.548Z,91.33
2023-04-14T00:28:39.532Z,91.81
2023-04-14T00:29:40.615Z,90.84
2023-04-14T00:30:39.588Z,91.50
2023-04-14T00:31:40.710Z,92.41
2023-04-14T00:32:40.675Z,91.40
2023-04-14T00:33:40.713Z,92.30
2023-04-14T00:34:40.672Z,91.48
2023-04-14T00:35:40.668Z,91.30
2023-04-14T00:36:40.689Z,89.53
2023-04-14T00:37:40.729Z,91.25
2023-04-14T00:38:40.716Z,89.13
2023-04-14T00:39:39.768Z,90.44
2023-04-14T00:40:39.758Z,92.76
2023-04-14T00:41:39.761Z,90.04
2023-04-14T00:42:40.804Z,90.38
2023-04-14T00:43:39.815Z,88.80
2023-04-14T00:44:39.857Z,89.94
2023-04-14T00:45:40.846Z,89.96
2023-04-14T00:46:40.900Z,90.20
2023-04-14T00:47:39.918Z,89.31
2023-04-14T00:48:39.876Z,87.30
2023-04-14T00:49:39.904Z,90.74
2023-04-14T00:50:40.923Z,88.95
2023-04-14T00:51:40.954Z,91.89
2023-04-14T00:52:40.958Z,89.55
2023-04-14T00:53:41.010Z,89.22
2023-04-14T00:54:40.987Z,89.60
2023-04-14T00:55:41.017Z,90.63
2023-04-14T00:56:41.043Z,90.57
2023-04-14T00:57:41.061Z,91.16
2023-04-14T00:58:41.096Z,90.23
2023-04-14T00:59:40.079Z,87.80
2023-04-14T01:00:41.078Z,90.01
2023-04-14T01:01:41.134Z,88.13
2023-04-14T01:02:41.449Z,89.02
2023-04-14T01:03:41.294Z,91.25
2023-04-14T01:04:52.880Z,87.71
2023-04-14T01:05:41.120Z,87.87
2023-04-14T01:06:41.140Z,87.94
2023-04-14T01:07:41.122Z,86.88
2023-04-14T01:08:40.107Z,87.87
2023-04-14T01:09:40.105Z,86.55
2023-04-14T01:10:41.127Z,87.44
2023-04-14T01:11:41.093Z,88.10
2023-04-14T01:12:40.082Z,86.27
2023-04-14T01:13:40.083Z,86.96
2023-04-14T01:14:41.065Z,85.63
2023-04-14T01:15:41.143Z,85.47
2023-04-14T01:16:40.055Z,85.82
2023-04-14T01:17:41.121Z,85.20
2023-04-14T01:18:41.075Z,84.86
2023-04-14T01:19:41.028Z,84.09
2023-04-14T01:20:41.013Z,84.66
2023-04-14T01:21:40.070Z,85.20
2023-04-14T01:22:41.004Z,85.90
2023-04-14T01:23:41.144Z,87.16
2023-04-14T01:24:41.071Z,88.63
2023-04-14T01:25:41.144Z,88.18
2023-04-14T01:26:41.176Z,85.06
2023-04-14T01:27:41.237Z,87.34
2023-04-14T01:28:40.284Z,87.45
2023-04-14T01:29:41.432Z,86.17
2023-04-14T01:30:40.423Z,86.17
2023-04-14T01:31:40.505Z,88.21
2023-04-14T01:32:41.557Z,87.42
2023-04-14T01:33:41.618Z,89.79
2023-04-14T01:34:41.687Z,85.73
2023-04-14T01:35:41.728Z,86.63
2023-04-14T01:36:41.802Z,88.29
2023-04-14T01:37:40.855Z,87.29
2023-04-14T01:38:41.880Z,86.61
2023-04-14T01:39:41.939Z,87.11
2023-04-14T01:40:41.981Z,86.16
2023-04-14T01:41:42.014Z,86.62
2023-04-14T01:42:42.065Z,87.20
2023-04-14T01:43:42.160Z,87.30
2023-04-14T01:44:42.135Z,85.34
2023-04-14T01:45:42.188Z,86.40
2023-04-14T01:46:42.235Z,87.25
2023-04-14T01:47:42.230Z,86.83
2023-04-14T01:48:41.249Z,86.46
2023-04-14T01:49:41.311Z,85.77
2023-04-14T01:50:41.328Z,86.64
2023-04-14T01:51:42.383Z,85.63
2023-04-14T01:52:42.362Z,89.00
2023-04-14T01:53:41.404Z,85.98
2023-04-14T01:54:41.526Z,86.62
2023-04-14T01:55:41.424Z,86.80
2023-04-14T01:56:42.444Z,86.13
2023-04-14T01:57:42.469Z,86.48
2023-04-14T01:58:41.491Z,87.26
2023-04-14T01:59:42.536Z,86.40
2023-04-14T02:00:41.568Z,83.76
2023-04-14T02:01:42.648Z,85.05
2023-04-14T02:02:42.773Z,87.67
2023-04-14T02:03:42.634Z,86.27
2023-04-14T02:04:42.617Z,87.57
2023-04-14T02:05:41.640Z,87.89
2023-04-14T02:06:42.672Z,86.34
2023-04-14T02:07:42.669Z,85.60
2023-04-14T02:08:41.715Z,86.71
2023-04-14T02:09:42.730Z,87.49
2023-04-14T02:10:42.869Z,86.64
2023-04-14T02:11:42.755Z,85.84
2023-04-14T02:12:42.771Z,85.63
2023-04-14T02:13:42.812Z,85.91
2023-04-14T02:14:42.824Z,84.62
2023-04-14T02:15:42.801Z,86.56
2023-04-14T02:16:42.894Z,85.84
2023-04-14T02:17:42.866Z,85.30
2023-04-14T02:18:42.837Z,86.06
2023-04-14T02:19:42.855Z,85.82
2023-04-14T02:20:41.894Z,85.71
2023-04-14T02:21:42.908Z,83.38
2023-04-14T02:22:42.910Z,82.94
2023-04-14T02:23:41.953Z,86.34
2023-04-14T02:24:42.916Z,85.98
2023-04-14T02:25:41.920Z,86.50
2023-04-14T02:26:41.953Z,86.40
2023-04-14T02:27:41.925Z,86.34
2023-04-14T02:28:42.922Z,86.09
2023-04-14T02:29:42.923Z,83.75
2023-04-14T02:30:41.925Z,84.38
2023-04-14T02:31:42.960Z,83.98
2023-04-14T02:32:42.001Z,85.79
2023-04-14T02:33:42.931Z,84.15
2023-04-14T02:34:42.907Z,84.63
2023-04-14T02:35:41.989Z,84.28
2023-04-14T02:36:42.954Z,84.44
2023-04-14T02:37:42.916Z,84.78
2023-04-14T02:38:41.947Z,83.98
2023-04-14T02:39:42.900Z,85.77
2023-04-14T02:40:41.882Z,85.46
2023-04-14T02:41:42.873Z,84.04
2023-04-14T02:42:41.893Z,84.63
2023-04-14T02:43:42.900Z,82.73
2023-04-14T02:44:41.866Z,83.32
2023-04-14T02:45:42.955Z,82.54
2023-04-14T02:46:42.919Z,85.24
2023-04-14T02:47:42.953Z,84.63
2023-04-14T02:48:43.122Z,83.83
2023-04-14T02:49:42.934Z,83.32
2023-04-14T02:50:42.929Z,82.37
2023-04-14T02:51:42.952Z,81.21
2023-04-14T02:52:42.967Z,83.10
2023-04-14T02:53:42.077Z,84.89
2023-04-14T02:54:43.024Z,80.85
2023-04-14T02:55:42.004Z,84.83
2023-04-14T02:56:42.984Z,83.06
2023-04-14T02:57:42.984Z,82.14
2023-04-14T02:58:42.059Z,83.40
2023-04-14T02:59:42.052Z,82.87
2023-04-14T03:00:42.031Z,82.84
2023-04-14T03:01:43.073Z,82.00
2023-04-14T03:02:42.092Z,81.61
2023-04-14T03:03:41.949Z,82.35
2023-04-14T03:04:43.000Z,82.38
2023-04-14T03:05:42.964Z,84.55
2023-04-14T03:06:42.962Z,83.98
2023-04-14T03:07:41.958Z,82.63
2023-04-14T03:08:42.954Z,81.04
2023-04-14T03:09:41.987Z,81.57
2023-04-14T03:10:41.999Z,80.41
2023-04-14T03:11:42.023Z,79.60
2023-04-14T03:12:42.967Z,81.45
2023-04-14T03:13:42.975Z,79.54
2023-04-14T03:14:42.994Z,81.13
2023-04-14T03:15:43.034Z,79.98
2023-04-14T03:16:42.999Z,80.49
2023-04-14T03:17:42.085Z,78.28
2023-04-14T03:18:42.030Z,78.53
2023-04-14T03:19:42.008Z,79.71
2023-04-14T03:20:43.062Z,77.52
2023-04-14T03:21:41.999Z,80.62
2023-04-14T03:22:42.996Z,78.77
2023-04-14T03:23:42.008Z,79.45
2023-04-14T03:24:42.993Z,77.55
2023-04-14T03:25:42.971Z,77.04
2023-04-14T03:26:43.071Z,77.84
2023-04-14T03:27:42.962Z,79.99
2023-04-14T03:28:42.979Z,78.72
2023-04-14T03:29:41.973Z,76.17
2023-04-14T03:30:42.954Z,77.41
2023-04-14T03:31:43.014Z,77.10
2023-04-14T03:32:42.347Z,77.73
2023-04-14T03:33:43.018Z,78.14
2023-04-14T03:34:42.017Z,78.98
2023-04-14T03:35:41.990Z,75.68
2023-04-14T03:36:42.013Z,76.58
2023-04-14T03:37:43.019Z,75.90
2023-04-14T03:38:43.055Z,75.67
2023-04-14T03:39:43.028Z,76.04
2023-04-14T03:40:43.093Z,74.41
2023-04-14T03:41:42.048Z,75.06
2023-04-14T03:42:42.071Z,75.71
2023-04-14T03:43:43.044Z,76.91
2023-04-14T03:44:42.065Z,74.64
2023-04-14T03:45:42.105Z,76.04
2023-04-14T03:46:43.156Z,74.48
2023-04-14T03:47:42.106Z,74.97
2023-04-14T03:48:43.079Z,77.36
2023-04-14T03:49:42.110Z,73.65
2023-04-14T03:50:43.102Z,75.55
2023-04-14T03:51:43.157Z,74.99
2023-04-14T03:52:43.088Z,74.97
2023-04-14T03:53:42.116Z,76.47
2023-04-14T03:54:43.248Z,73.57
2023-04-14T03:55:43.105Z,74.15
2023-04-14T03:56:42.120Z,73.82
2023-04-14T03:57:42.123Z,74.75
2023-04-14T03:58:43.137Z,74.81
2023-04-14T03:59:42.128Z,73.61
2023-04-14T04:00:43.111Z,71.65
2023-04-14T04:01:42.148Z,72.80
2023-04-14T04:02:43.344Z,74.02
2023-04-14T04:03:42.522Z,74.47
2023-04-14T04:04:43.182Z,72.33
2023-04-14T04:05:42.102Z,72.89
2023-04-14T04:06:42.146Z,71.88
2023-04-14T04:07:43.163Z,71.40
2023-04-14T04:08:43.114Z,74.56
2023-04-14T04:09:42.121Z,72.91
2023-04-14T04:10:42.123Z,73.73
2023-04-14T04:11:42.089Z,73.11
2023-04-14T04:12:43.152Z,72.09
2023-04-14T04:13:43.115Z,72.56
2023-04-14T04:14:42.155Z,72.40
2023-04-14T04:15:43.124Z,71.59
2023-04-14T04:16:43.132Z,70.08
2023-04-14T04:17:43.149Z,72.40
2023-04-14T04:18:43.139Z,71.08
2023-04-14T04:19:42.099Z,70.59
2023-04-14T04:20:43.115Z,68.29
2023-04-14T04:21:42.133Z,71.23
2023-04-14T04:22:43.135Z,70.54
2023-04-14T04:23:42.114Z,68.89
2023-04-14T04:24:42.380Z,68.69
2023-04-14T04:25:43.100Z,69.60
2023-04-14T04:26:43.132Z,70.94
2023-04-14T04:27:43.136Z,68.87
2023-04-14T04:28:43.149Z,70.25
2023-04-14T04:29:43.182Z,69.06
2023-04-14T04:30:43.205Z,67.91
2023-04-14T04:31:42.220Z,69.98
2023-04-14T04:32:43.219Z,69.63
2023-04-14T04:33:42.209Z,67.13
2023-04-14T04:34:43.227Z,69.53
2023-04-14T04:35:42.248Z,68.90
2023-04-14T04:36:43.237Z,67.75
2023-04-14T04:37:43.248Z,67.07
2023-04-14T04:38:43.254Z,68.03
2023-04-14T04:39:43.280Z,67.91
2023-04-14T04:40:42.333Z,66.96
2023-04-14T04:41:42.301Z,67.77
2023-04-14T04:42:42.313Z,67.01
2023-04-14T04:43:43.344Z,66.48
2023-04-14T04:44:42.367Z,66.29
2023-04-14T04:45:43.406Z,66.95
2023-04-14T04:46:43.516Z,66.11
2023-04-14T04:47:43.577Z,66.73
2023-04-14T04:48:43.442Z,65.80
2023-04-14T04:49:42.470Z,64.78
2023-04-14T04:50:44.129Z,64.70
2023-04-14T04:51:43.435Z,66.36
2023-04-14T04:52:43.473Z,65.99
2023-04-14T04:53:43.563Z,64.29
2023-04-14T04:54:43.622Z,69.21
2023-04-14T04:55:42.539Z,67.41
2023-04-14T04:56:43.503Z,63.88
2023-04-14T04:57:42.515Z,63.67
2023-04-14T04:58:43.541Z,65.74
2023-04-14T04:59:43.588Z,64.90
2023-04-14T05:00:43.581Z,67.15
2023-04-14T05:01:42.678Z,63.99
2023-04-14T05:02:42.797Z,64.19
2023-04-14T05:03:43.612Z,61.28
2023-04-14T05:04:42.684Z,63.02
2023-04-14T05:05:42.656Z,64.40
2023-04-14T05:06:42.654Z,64.68
2023-04-14T05:07:43.666Z,63.66
2023-04-14T05:08:43.728Z,66.06
2023-04-14T05:09:43.730Z,64.14
2023-04-14T05:10:43.973Z,66.21
2023-04-14T05:11:43.697Z,66.29
2023-04-14T05:12:42.735Z,63.80
2023-04-14T05:13:42.718Z,64.45
2023-04-14T05:14:43.737Z,64.46
2023-04-14T05:15:42.817Z,64.35
2023-04-14T05:16:43.776Z,63.80
2023-04-14T05:17:42.881Z,63.80
2023-04-14T05:18:42.812Z,62.37
2023-04-14T05:19:43.821Z,66.01
2023-04-14T05:20:42.829Z,65.31
2023-04-14T05:21:42.846Z,62.34
2023-04-14T05:22:43.882Z,63.05
2023-04-14T05:23:43.936Z,64.78
2023-04-14T05:24:43.893Z,62.70
2023-04-14T05:25:44.948Z,62.42
2023-04-14T05:26:51.723Z,66.85
2023-04-14T05:27:43.921Z,67.10
2023-04-14T05:28:42.904Z,66.92
2023-04-14T05:29:43.908Z,67.01
2023-04-14T05:30:43.909Z,67.32
2023-04-14T05:31:43.951Z,64.84
2023-04-14T05:32:42.879Z,67.56
2023-04-14T05:33:43.910Z,66.25
2023-04-14T05:34:43.869Z,67.10
2023-04-14T05:35:42.836Z,66.34
2023-04-14T05:36:43.878Z,65.74
2023-04-14T05:37:42.824Z,68.69
2023-04-14T05:38:43.820Z,68.65
2023-04-14T05:39:42.852Z,70.95
2023-04-14T05:40:43.813Z,71.88
2023-04-14T05:41:42.796Z,74.78
2023-04-14T05:42:43.835Z,73.89
2023-04-14T05:43:43.781Z,73.95
2023-04-14T05:44:43.819Z,76.42
2023-04-14T05:45:43.794Z,78.89
2023-04-14T05:46:43.804Z,77.86
2023-04-14T05:47:43.994Z,80.04
2023-04-14T05:48:42.745Z,85.00
2023-04-14T05:49:43.964Z,84.71
2023-04-14T05:50:43.761Z,89.98
2023-04-14T05:51:43.738Z,90.22
2023-04-14T05:52:42.792Z,89.86
2023-04-14T05:53:43.733Z,102.27
2023-04-14T05:54:43.778Z,109.25
2023-04-14T05:55:42.776Z,107.36
2023-04-14T05:56:42.728Z,108.31
2023-04-14T05:57:43.705Z,113.42
2023-04-14T05:58:43.686Z,109.71
2023-04-14T05:59:42.701Z,114.81
2023-04-14T06:00:44.140Z,113.67
2023-04-14T06:01:43.872Z,116.07
2023-04-14T06:02:43.846Z,118.79
2023-04-14T06:03:44.075Z,127.62
2023-04-14T06:04:43.860Z,128.70
2023-04-14T06:05:42.735Z,132.91
2023-04-14T06:06:43.791Z,147.87
2023-04-14T06:07:43.841Z,144.04
2023-04-14T06:08:43.850Z,147.32
2023-04-14T06:09:43.838Z,151.50
2023-04-14T06:10:43.924Z,157.76
2023-04-14T06:11:43.928Z,163.17
2023-04-14T06:12:43.885Z,164.59
2023-04-14T06:13:43.000Z,169.20
2023-04-14T06:14:42.908Z,170.98
2023-04-14T06:15:43.945Z,173.37
2023-04-14T06:16:43.098Z,179.41
2023-04-14T06:17:44.133Z,179.14
2023-04-14T06:18:44.005Z,182.15
2023-04-14T06:19:44.015Z,189.97
2023-04-14T06:20:43.028Z,189.25
2023-04-14T06:21:43.047Z,192.00
2023-04-14T06:22:44.125Z,195.04
2023-04-14T06:23:44.041Z,197.59
2023-04-14T06:24:44.055Z,204.00
2023-04-14T06:25:44.063Z,204.60
2023-04-14T06:26:44.170Z,207.70
2023-04-14T06:27:43.104Z,211.04
2023-04-14T06:28:44.492Z,215.19
2023-04-14T06:29:43.033Z,218.74
2023-04-14T06:30:43.052Z,221.64
2023-04-14T06:31:44.095Z,223.04
2023-04-14T06:32:44.136Z,224.37
2023-04-14T06:33:43.049Z,226.77
2023-04-14T06:34:44.046Z,229.17
2023-04-14T06:35:44.068Z,234.63
2023-04-14T06:36:43.120Z,230.77
2023-04-14T06:37:44.061Z,235.82
2023-04-14T06:38:44.121Z,243.48
2023-04-14T06:39:43.097Z,242.50
2023-04-14T06:40:43.265Z,242.18
2023-04-14T06:41:44.192Z,246.73
2023-04-14T06:42:43.298Z,250.00
2023-04-14T06:43:44.210Z,249.10
2023-04-14T06:44:44.242Z,250.00
2023-04-14T06:45:44.321Z,246.52
2023-04-14T06:46:44.328Z,248.48
2023-04-14T06:47:44.398Z,250.00
2023-04-14T06:48:44.438Z,248.80
2023-04-14T06:49:43.456Z,250.00
2023-04-14T06:50:44.550Z,248.27
2023-04-14T06:51:44.576Z,249.30
2023-04-14T06:52:44.573Z,245.98
2023-04-14T06:53:43.601Z,245.14
2023-04-14T06:54:43.638Z,246.50
2023-04-14T06:55:44.687Z,248.18
2023-04-14T06:56:44.702Z,246.32
2023-04-14T06:57:44.724Z,247.03
2023-04-14T06:58:44.814Z,248.69
2023-04-14T06:59:44.717Z,248.10
2023-04-14T07:00:43.780Z,249.03
2023-04-14T07:01:43.963Z,248.72
2023-04-14T07:02:45.009Z,246.19
2023-04-14T07:03:45.010Z,249.94
2023-04-14T07:04:44.104Z,249.18
2023-04-14T07:05:45.101Z,248.51
2023-04-14T07:06:44.249Z,248.06
2023-04-14T07:07:44.376Z,246.67
2023-04-14T07:08:44.322Z,246.63
2023-04-14T07:09:44.409Z,248.86
2023-04-14T07:10:45.492Z,250.00
2023-04-14T07:11:45.461Z,248.22
2023-04-14T07:12:45.516Z,248.01
2023-04-14T07:13:45.639Z,247.62
2023-04-14T07:14:44.619Z,246.84
2023-04-14T07:15:45.705Z,247.22
2023-04-14T07:16:44.728Z,249.72
2023-04-14T07:17:44.814Z,248.79
2023-04-14T07:18:45.801Z,245.33
2023-04-14T07:19:45.862Z,249.97
2023-04-14T07:20:45.889Z,247.91
2023-04-14T07:21:44.912Z,249.03
2023-04-14T07:22:44.942Z,247.50
2023-04-14T07:23:45.999Z,248.80
2023-04-14T07:24:45.043Z,248.71
2023-04-14T07:25:45.089Z,248.26
2023-04-14T07:26:45.189Z,246.02
2023-04-14T07:27:56.301Z,250.00
2023-04-14T07:28:46.174Z,250.12
2023-04-14T07:29:46.159Z,249.61
2023-04-14T07:30:45.153Z,250.14
2023-04-14T07:31:46.268Z,250.52
2023-04-14T07:32:45.196Z,251.10
2023-04-14T07:33:45.125Z,248.84
2023-04-14T07:34:46.149Z,247.42
2023-04-14T07:35:58.706Z,250.00
2023-04-14T07:36:46.143Z,250.13
2023-04-14T07:37:45.089Z,250.74
2023-04-14T07:38:46.173Z,250.24
2023-04-14T07:39:45.093Z,251.39
2023-04-14T07:40:45.097Z,250.15
2023-04-14T07:41:45.084Z,250.00
2023-04-14T07:42:45.257Z,247.32
2023-04-14T07:43:46.080Z,246.59
2023-04-14T07:44:46.146Z,248.29
2023-04-14T07:45:46.051Z,248.34
2023-04-14T07:46:46.239Z,247.78
2023-04-14T07:47:46.737Z,247.99
2023-04-14T07:48:46.050Z,211.40
2023-04-14T07:49:46.065Z,154.20
2023-04-14T07:50:46.027Z,146.43
2023-04-14T07:51:46.203Z,134.74
2023-04-14T07:52:46.001Z,144.48
2023-04-14T07:53:46.556Z,147.58
2023-04-14T07:54:46.108Z,157.50
2023-04-14T07:55:45.992Z,170.33
2023-04-14T07:56:45.984Z,178.96
2023-04-14T07:57:45.989Z,177.33
2023-04-14T07:58:45.990Z,179.44
2023-04-14T07:59:45.950Z,181.35
2023-04-14T08:00:46.054Z,186.18
2023-04-14T08:01:46.114Z,188.51
2023-04-14T08:02:46.102Z,187.38
2023-04-14T08:03:45.682Z,190.24
2023-04-14T08:04:45.997Z,192.08
2023-04-14T08:05:46.309Z,194.32
2023-04-14T08:06:45.107Z,191.92
2023-04-14T08:07:45.150Z,194.16
2023-04-14T08:08:45.205Z,195.19
2023-04-14T08:09:46.312Z,198.45
2023-04-14T08:10:46.287Z,196.18
2023-04-14T08:11:46.333Z,201.96
2023-04-14T08:12:46.375Z,201.88
2023-04-14T08:13:46.383Z,204.75
2023-04-14T08:14:45.465Z,203.65
2023-04-14T08:15:45.741Z,207.24
2023-04-14T08:16:46.524Z,210.33
2023-04-14T08:17:45.510Z,212.00
2023-04-14T08:18:46.518Z,210.44
2023-04-14T08:19:46.523Z,210.76
2023-04-14T08:20:46.575Z,213.01
2023-04-14T08:21:46.558Z,212.84
2023-04-14T08:22:46.537Z,214.43
2023-04-14T08:23:46.762Z,214.01
2023-04-14T08:24:46.566Z,216.56
2023-04-14T08:25:45.533Z,218.71
2023-04-14T08:26:46.532Z,226.60
2023-04-14T08:27:46.643Z,233.30
2023-04-14T08:28:46.541Z,235.35
2023-04-14T08:29:45.566Z,235.18
2023-04-14T08:30:46.707Z,235.10
2023-04-14T08:31:46.786Z,234.87
2023-04-14T08:32:46.654Z,233.59
2023-04-14T08:33:46.664Z,234.27
2023-04-14T08:35:37.567Z,235.32
2023-04-14T08:35:46.678Z,235.52
2023-04-14T08:36:46.640Z,235.71
2023-04-14T08:37:45.640Z,236.37
2023-04-14T08:38:45.628Z,237.86
2023-04-14T08:39:46.777Z,239.31
2023-04-14T08:40:46.622Z,238.98
2023-04-14T08:41:45.779Z,237.93
2023-04-14T08:42:45.749Z,240.02
2023-04-14T08:43:45.595Z,239.44
2023-04-14T08:44:46.579Z,236.55
2023-04-14T08:45:46.600Z,238.76
2023-04-14T08:46:46.679Z,195.12
2023-04-14T08:47:46.593Z,128.77
2023-04-14T08:48:45.564Z,131.67
2023-04-14T08:49:46.616Z,143.88
2023-04-14T08:50:46.550Z,142.31
2023-04-14T08:51:46.741Z,163.87
2023-04-14T08:52:45.580Z,171.29
2023-04-14T08:53:46.572Z,168.00
2023-04-14T08:54:46.541Z,168.11
2023-04-14T08:55:46.516Z,169.91
2023-04-14T08:56:45.779Z,172.44
2023-04-14T08:57:45.544Z,176.39
2023-04-14T08:58:45.829Z,179.06
2023-04-14T08:59:46.483Z,181.24
2023-04-14T09:00:46.528Z,187.06
2023-04-14T09:01:46.649Z,194.13
2023-04-14T09:02:46.677Z,192.61
2023-04-14T09:03:46.587Z,198.27
2023-04-14T09:04:45.713Z,202.88
2023-04-14T09:05:46.458Z,203.91
2023-04-14T09:06:46.526Z,202.84
2023-04-14T09:07:46.442Z,202.08
2023-04-14T09:08:46.572Z,208.84
2023-04-14T09:09:46.450Z,205.36
2023-04-14T09:10:46.427Z,210.90
2023-04-14T09:11:45.551Z,229.53
2023-04-14T09:12:46.517Z,222.03
2023-04-14T09:13:46.379Z,226.98
2023-04-14T09:14:45.532Z,228.68
2023-04-14T09:15:45.388Z,225.01
2023-04-14T09:16:45.436Z,224.91
2023-04-14T09:17:46.551Z,226.05
2023-04-14T09:18:47.369Z,225.76
2023-04-14T09:20:38.219Z,223.06
2023-04-14T09:20:46.383Z,223.23
2023-04-14T09:21:53.688Z,223.90
2023-04-14T09:22:46.413Z,223.45
2023-04-14T09:23:46.390Z,224.67
2023-04-14T09:24:46.337Z,226.63
2023-04-14T09:25:46.403Z,230.50
2023-04-14T09:26:46.344Z,232.95
2023-04-14T09:27:46.333Z,236.80
2023-04-14T09:28:47.164Z,238.57
2023-04-14T09:29:46.339Z,238.15
2023-04-14T09:30:46.385Z,238.64
2023-04-14T09:31:46.324Z,239.95
2023-04-14T09:32:46.297Z,240.48
2023-04-14T09:33:46.313Z,241.85
2023-04-14T09:34:45.313Z,244.15
2023-04-14T09:35:45.271Z,244.72
2023-04-14T09:36:46.286Z,245.53
2023-04-14T09:37:46.307Z,247.08
2023-04-14T09:38:46.355Z,249.54
2023-04-14T09:39:46.421Z,249.25
2023-04-14T09:40:45.535Z,250.00
2023-04-14T09:41:46.484Z,249.32
2023-04-14T09:42:46.539Z,247.24
2023-04-14T09:43:46.645Z,248.80
2023-04-14T09:44:46.651Z,249.49
2023-04-14T09:45:46.706Z,246.80
2023-04-14T09:46:47.296Z,242.35
2023-04-14T09:47:46.882Z,241.78
2023-04-14T09:48:46.848Z,243.76
2023-04-14T09:49:45.905Z,239.80
2023-04-14T09:50:45.994Z,239.74
2023-04-14T09:51:47.229Z,227.76
2023-04-14T09:52:47.214Z,154.08
2023-04-14T09:53:48.710Z,83.51
2023-04-14T09:54:47.372Z,68.22
2023-04-14T09:55:47.344Z,43.68
2023-04-14T09:56:46.768Z,33.36
2023-04-14T09:57:46.361Z,32.01
2023-04-14T09:58:46.423Z,29.74
2023-04-14T09:59:46.481Z,28.90
2023-04-14T10:00:46.492Z,23.05
2023-04-14T10:01:47.619Z,25.78
2023-04-14T10:02:47.682Z,19.58
2023-04-14T10:03:46.694Z,28.37
2023-04-14T10:04:47.681Z,20.31
2023-04-14T10:05:47.756Z,27.93
2023-04-14T10:06:47.815Z,36.28
2023-04-14T10:07:47.818Z,26.06
2023-04-14T10:08:46.864Z,25.46
2023-04-14T10:09:47.937Z,25.00
2023-04-14T10:10:47.154Z,27.86
2023-04-14T10:11:48.082Z,32.41
2023-04-14T10:12:48.086Z,32.00
2023-04-14T10:13:47.169Z,32.29
2023-04-14T10:14:48.251Z,27.52
2023-04-14T10:15:48.308Z,28.63
2023-04-14T10:16:48.234Z,26.82
2023-04-14T10:17:47.337Z,26.19
2023-04-14T10:18:48.373Z,25.00
2023-04-14T10:19:47.410Z,25.27
2023-04-14T10:20:47.463Z,29.65
2023-04-14T10:21:48.575Z,26.38
2023-04-14T10:22:48.662Z,26.02
2023-04-14T10:23:48.661Z,25.37
2023-04-14T10:24:47.731Z,24.64
2023-04-14T10:25:48.771Z,29.17
2023-04-14T10:26:48.803Z,29.62
2023-04-14T10:27:47.805Z,30.13
2023-04-14T10:28:47.766Z,31.61
2023-04-14T10:29:47.789Z,25.24
2023-04-14T10:30:48.808Z,25.53
2023-04-14T10:31:48.951Z,25.00
2023-04-14T10:32:48.769Z,26.57
2023-04-14T10:33:48.818Z,26.33
2023-04-14T10:34:48.829Z,27.39
2023-04-14T10:35:48.834Z,29.52
2023-04-14T10:36:48.783Z,29.02
2023-04-14T10:37:48.739Z,25.86
2023-04-14T10:38:48.764Z,26.47
2023-04-14T10:39:47.764Z,39.69
2023-04-14T10:40:48.741Z,51.35
2023-04-14T10:41:48.865Z,52.63
2023-04-14T10:42:47.763Z,54.83
2023-04-14T10:43:48.715Z,57.31
2023-04-14T10:44:47.741Z,57.60
2023-04-14T10:45:48.795Z,63.82
2023-04-14T10:46:48.878Z,65.04
2023-04-14T10:47:48.909Z,68.47
2023-04-14T10:48:48.950Z,74.03
2023-04-14T10:49:47.972Z,76.53
2023-04-14T10:50:49.022Z,80.76
2023-04-14T10:51:50.019Z,83.01
2023-04-14T10:52:49.048Z,86.85
2023-04-14T10:53:48.002Z,87.91
2023-04-14T10:54:48.077Z,93.36
2023-04-14T10:55:52.371Z,94.96
2023-04-14T10:56:48.178Z,95.13
2023-04-14T10:57:48.088Z,95.42
2023-04-14T10:58:48.091Z,96.27
2023-04-14T10:59:49.076Z,99.62
2023-04-14T11:00:49.103Z,107.89
2023-04-14T11:01:49.135Z,108.46
2023-04-14T11:02:49.170Z,107.86
2023-04-14T11:03:49.300Z,108.52
2023-04-14T11:04:48.061Z,109.76
2023-04-14T11:05:48.074Z,112.04
2023-04-14T11:06:49.047Z,112.71
2023-04-14T11:07:48.032Z,113.72
2023-04-14T11:08:48.077Z,116.97
2023-04-14T11:09:49.023Z,118.30
2023-04-14T11:10:49.062Z,118.32
2023-04-14T11:11:49.002Z,119.41
2023-04-14T11:12:49.019Z,119.83
2023-04-14T11:13:48.993Z,123.28
2023-04-14T11:14:49.030Z,122.84
2023-04-14T11:15:48.994Z,124.62
2023-04-14T11:17:02.472Z,125.13
2023-04-14T11:17:49.098Z,125.23
2023-04-14T11:18:48.969Z,125.44
2023-04-14T11:19:49.037Z,126.23
2023-04-14T11:20:48.952Z,127.06
2023-04-14T11:21:48.953Z,129.74
2023-04-14T11:22:47.998Z,130.02
2023-04-14T11:23:48.937Z,130.98
2023-04-14T11:24:48.946Z,132.90
2023-04-14T11:25:48.917Z,132.39
2023-04-14T11:26:48.956Z,137.91
2023-04-14T11:27:48.926Z,140.64
2023-04-14T11:28:48.901Z,142.69
2023-04-14T11:29:48.910Z,144.45
2023-04-14T11:30:47.880Z,145.23
2023-04-14T11:31:48.947Z,146.85
2023-04-14T11:32:48.984Z,148.76
2023-04-14T11:33:48.886Z,150.98
2023-04-14T11:34:48.919Z,154.58
2023-04-14T11:35:48.883Z,155.97
2023-04-14T11:36:48.279Z,154.45
2023-04-14T11:37:48.855Z,157.35
2023-04-14T11:38:47.945Z,155.77
2023-04-14T11:39:47.843Z,155.84
2023-04-14T11:40:48.814Z,157.68
2023-04-14T11:41:49.249Z,158.70
2023-04-14T11:42:48.859Z,157.75
2023-04-14T11:43:47.829Z,158.68
2023-04-14T11:44:47.789Z,157.83
2023-04-14T11:45:48.834Z,158.47
2023-04-14T11:46:47.818Z,159.45
2023-04-14T11:47:48.922Z,157.99
2023-04-14T11:48:48.772Z,160.36
2023-04-14T11:49:47.771Z,159.85
2023-04-14T11:50:47.787Z,159.91
2023-04-14T11:51:47.783Z,159.90
2023-04-14T11:52:48.752Z,159.20
2023-04-14T11:53:48.756Z,159.90
2023-04-14T11:54:47.743Z,161.37
2023-04-14T11:55:47.775Z,160.97
2023-04-14T11:56:48.801Z,160.86
2023-04-14T11:57:48.795Z,160.00
2023-04-14T11:58:47.799Z,160.06
2023-04-14T11:59:48.927Z,161.68
2023-04-14T12:00:48.998Z,155.47
2023-04-14T12:01:47.818Z,135.93
2023-04-14T12:02:48.922Z,121.13
2023-04-14T12:03:49.019Z,109.25
2023-04-14T12:04:50.333Z,98.11
2023-04-14T12:05:48.925Z,77.63
2023-04-14T12:06:47.868Z,67.50
2023-04-14T12:07:48.898Z,64.46
2023-04-14T12:08:48.861Z,58.94
2023-04-14T12:09:48.906Z,50.14
2023-04-14T12:10:48.862Z,46.39
2023-04-14T12:11:48.854Z,42.41
2023-04-14T12:12:48.859Z,42.28
2023-04-14T12:13:48.911Z,40.28
2023-04-14T12:14:47.973Z,37.59
2023-04-14T12:15:48.076Z,36.91
2023-04-14T12:16:48.009Z,39.38
2023-04-14T12:17:48.143Z,40.35
2023-04-14T12:18:49.098Z,38.15
2023-04-14T12:19:48.154Z,29.11
2023-04-14T12:20:49.219Z,29.66
2023-04-14T12:21:48.275Z,26.18
2023-04-14T12:22:49.344Z,26.40
2023-04-14T12:23:48.389Z,29.81
2023-04-14T12:24:49.459Z,25.00
2023-04-14T12:25:49.433Z,30.33
2023-04-14T12:26:48.408Z,30.16
2023-04-14T12:27:49.436Z,39.02
2023-04-14T12:28:49.414Z,43.87
2023-04-14T12:29:49.400Z,43.65
2023-04-14T12:30:48.655Z,43.10
2023-04-14T12:31:48.577Z,39.80
2023-04-14T12:32:48.622Z,44.58
2023-04-14T12:33:48.628Z,37.33
2023-04-14T12:34:48.665Z,29.56
2023-04-14T12:35:49.738Z,30.37
2023-04-14T12:37:48.387Z,25.17
2023-04-14T12:37:49.840Z,25.20
2023-04-14T12:38:49.773Z,26.05
2023-04-14T12:39:49.793Z,25.91
2023-04-14T12:40:48.768Z,24.85
2023-04-14T12:41:48.759Z,24.68
2023-04-14T12:42:48.750Z,26.47